RA46742 UNNT-UNBB
Flight info
| Callsign | RA46742 |
|---|---|
| Flight time | N/A |
| Altitude | 7000 |
| Route | ARMAK MOMIP TUMKO |
| Aircraft | SR22/L-SDGRY/S |
Departure
| Time | 2026-05-01 14:06 |
|---|---|
| Airport | Novosibirsk Tolmachevo Airport (UNNT) |
Arrival
| Time | N/A |
|---|---|
| Airport | Barnaul Gherman Titov International Airport (UNBB) |
| Time | Latitude | Longitude | Altitude | Speed | Heading |
|---|---|---|---|---|---|
| 2026-05-01 13:53 | 55.00875 | 82.65531 | 366 ft | 0 kts | 352° |
| 2026-05-01 13:59 | 55.00877 | 82.65530 | 366 ft | 1 kts | 351° |
| 2026-05-01 13:59 | 55.00901 | 82.65507 | 366 ft | 6 kts | 298° |
| 2026-05-01 13:59 | 55.00900 | 82.65459 | 366 ft | 0 kts | 261° |
| 2026-05-01 14:00 | 55.00899 | 82.65447 | 366 ft | 0 kts | 264° |
| 2026-05-01 14:00 | 55.00898 | 82.65440 | 366 ft | 1 kts | 261° |
| 2026-05-01 14:00 | 55.00891 | 82.65384 | 366 ft | 9 kts | 256° |
| 2026-05-01 14:00 | 55.00881 | 82.65271 | 366 ft | 9 kts | 260° |
| 2026-05-01 14:01 | 55.00882 | 82.65165 | 366 ft | 5 kts | 266° |
| 2026-05-01 14:01 | 55.00899 | 82.65136 | 366 ft | 6 kts | 349° |
| 2026-05-01 14:01 | 55.00954 | 82.65122 | 366 ft | 8 kts | 349° |
| 2026-05-01 14:01 | 55.01017 | 82.65101 | 366 ft | 7 kts | 354° |
| 2026-05-01 14:02 | 55.01083 | 82.65083 | 366 ft | 9 kts | 355° |
| 2026-05-01 14:02 | 55.01115 | 82.65074 | 366 ft | 0 kts | 353° |
| 2026-05-01 14:02 | 55.01116 | 82.65074 | 366 ft | 0 kts | 356° |
| 2026-05-01 14:05 | 55.01122 | 82.65073 | 366 ft | 3 kts | 348° |
| 2026-05-01 14:05 | 55.01173 | 82.65058 | 366 ft | 8 kts | 347° |
| 2026-05-01 14:05 | 55.01246 | 82.65104 | 366 ft | 15 kts | 61° |
| 2026-05-01 14:06 | 55.01279 | 82.65402 | 366 ft | 53 kts | 81° |
| 2026-05-01 14:06 | 55.01353 | 82.66312 | 515 ft | 87 kts | 83° |
| 2026-05-01 14:06 | 55.01440 | 82.67412 | 777 ft | 97 kts | 85° |
| 2026-05-01 14:06 | 55.01546 | 82.68604 | 1028 ft | 103 kts | 86° |
| 2026-05-01 14:07 | 55.01633 | 82.69884 | 1250 ft | 107 kts | 90° |
| 2026-05-01 14:07 | 55.01738 | 82.71189 | 1485 ft | 110 kts | 85° |
| 2026-05-01 14:07 | 55.01912 | 82.72495 | 1732 ft | 110 kts | 85° |
| 2026-05-01 14:08 | 55.02251 | 82.75046 | 2273 ft | 106 kts | 87° |
| 2026-05-01 14:08 | 55.02399 | 82.76279 | 2561 ft | 104 kts | 86° |
| 2026-05-01 14:08 | 55.02566 | 82.77489 | 2847 ft | 102 kts | 84° |
| 2026-05-01 14:08 | 55.02728 | 82.78667 | 3143 ft | 99 kts | 89° |
| 2026-05-01 14:09 | 55.02591 | 82.79739 | 3378 ft | 97 kts | 131° |
| 2026-05-01 14:09 | 55.01953 | 82.80280 | 3535 ft | 111 kts | 166° |
| 2026-05-01 14:09 | 55.01176 | 82.80535 | 3749 ft | 118 kts | 168° |
| 2026-05-01 14:09 | 55.00355 | 82.80792 | 3994 ft | 121 kts | 167° |
| 2026-05-01 14:10 | 54.99531 | 82.81015 | 4260 ft | 121 kts | 169° |
| 2026-05-01 14:10 | 54.98696 | 82.81200 | 4529 ft | 121 kts | 170° |
| 2026-05-01 14:10 | 54.97856 | 82.81364 | 4809 ft | 121 kts | 171° |
| 2026-05-01 14:10 | 54.97024 | 82.81518 | 5066 ft | 121 kts | 171° |
| 2026-05-01 14:11 | 54.96180 | 82.81667 | 5329 ft | 121 kts | 171° |
| 2026-05-01 14:11 | 54.94509 | 82.81957 | 5830 ft | 121 kts | 172° |
| 2026-05-01 14:11 | 54.93670 | 82.82101 | 6081 ft | 121 kts | 172° |
| 2026-05-01 14:12 | 54.92835 | 82.82244 | 6318 ft | 122 kts | 172° |
| 2026-05-01 14:12 | 54.91929 | 82.82400 | 6337 ft | 139 kts | 172° |
| 2026-05-01 14:12 | 54.90921 | 82.82569 | 6337 ft | 151 kts | 173° |
| 2026-05-01 14:12 | 54.89862 | 82.82745 | 6336 ft | 158 kts | 173° |
| 2026-05-01 14:13 | 54.88736 | 82.82933 | 6352 ft | 163 kts | 173° |
| 2026-05-01 14:13 | 54.87973 | 82.83061 | 6338 ft | 166 kts | 173° |
| 2026-05-01 14:13 | 54.86400 | 82.83324 | 6189 ft | 174 kts | 173° |
| 2026-05-01 14:13 | 54.85177 | 82.83531 | 6077 ft | 178 kts | 173° |
| 2026-05-01 14:14 | 54.83960 | 82.83736 | 6027 ft | 177 kts | 173° |
| 2026-05-01 14:14 | 54.83149 | 82.83873 | 6027 ft | 174 kts | 173° |
| 2026-05-01 14:14 | 54.82032 | 82.84063 | 6021 ft | 173 kts | 173° |
| 2026-05-01 14:14 | 54.80833 | 82.84266 | 6028 ft | 171 kts | 173° |
| 2026-05-01 14:15 | 54.79656 | 82.84467 | 6027 ft | 171 kts | 173° |
| 2026-05-01 14:15 | 54.78478 | 82.84666 | 6024 ft | 170 kts | 173° |
| 2026-05-01 14:15 | 54.77301 | 82.84864 | 6028 ft | 170 kts | 173° |
| 2026-05-01 14:15 | 54.76119 | 82.85062 | 6028 ft | 170 kts | 173° |
| 2026-05-01 14:16 | 54.74952 | 82.85259 | 6029 ft | 170 kts | 173° |
| 2026-05-01 14:16 | 54.73775 | 82.85458 | 6025 ft | 170 kts | 173° |
| 2026-05-01 14:16 | 54.72601 | 82.85654 | 6024 ft | 170 kts | 173° |
| 2026-05-01 14:16 | 54.71421 | 82.85853 | 6027 ft | 169 kts | 173° |
| 2026-05-01 14:17 | 54.70245 | 82.86050 | 6027 ft | 169 kts | 173° |
| 2026-05-01 14:17 | 54.69081 | 82.86253 | 6026 ft | 169 kts | 171° |
| 2026-05-01 14:17 | 54.67994 | 82.86980 | 6029 ft | 168 kts | 152° |
| 2026-05-01 14:17 | 54.66962 | 82.87964 | 6028 ft | 168 kts | 151° |
| 2026-05-01 14:18 | 54.65950 | 82.88947 | 6028 ft | 168 kts | 151° |
| 2026-05-01 14:18 | 54.64928 | 82.89938 | 6029 ft | 169 kts | 151° |
| 2026-05-01 14:18 | 54.63903 | 82.90932 | 6079 ft | 166 kts | 151° |
| 2026-05-01 14:18 | 54.63251 | 82.91563 | 6197 ft | 160 kts | 151° |
| 2026-05-01 14:19 | 54.61970 | 82.92806 | 6355 ft | 156 kts | 151° |
| 2026-05-01 14:19 | 54.61028 | 82.93717 | 6474 ft | 155 kts | 151° |
| 2026-05-01 14:19 | 54.60101 | 82.94613 | 6595 ft | 154 kts | 151° |
| 2026-05-01 14:19 | 54.59163 | 82.95518 | 6715 ft | 153 kts | 151° |
| 2026-05-01 14:20 | 54.58233 | 82.96415 | 6834 ft | 152 kts | 151° |
| 2026-05-01 14:20 | 54.56386 | 82.98193 | 7032 ft | 155 kts | 152° |
| 2026-05-01 14:20 | 54.55426 | 82.99113 | 7040 ft | 160 kts | 152° |
| 2026-05-01 14:21 | 54.54452 | 83.00047 | 7040 ft | 163 kts | 152° |
| 2026-05-01 14:21 | 54.53449 | 83.01011 | 7041 ft | 166 kts | 152° |
| 2026-05-01 14:21 | 54.52436 | 83.01984 | 7040 ft | 168 kts | 152° |
| 2026-05-01 14:22 | 54.50384 | 83.03954 | 7038 ft | 169 kts | 151° |
| 2026-05-01 14:22 | 54.49362 | 83.04936 | 7038 ft | 170 kts | 151° |
| 2026-05-01 14:22 | 54.48331 | 83.05926 | 7038 ft | 170 kts | 151° |
| 2026-05-01 14:22 | 54.47286 | 83.06929 | 7042 ft | 170 kts | 151° |
| 2026-05-01 14:23 | 54.46256 | 83.07917 | 7040 ft | 171 kts | 151° |
| 2026-05-01 14:23 | 54.45219 | 83.08911 | 7040 ft | 171 kts | 151° |
| 2026-05-01 14:23 | 54.44182 | 83.09905 | 7041 ft | 171 kts | 152° |